createdAt,value
2023-03-20T00:02:20.602Z,25.05
2023-03-20T00:04:47.787Z,24.67
2023-03-20T00:07:14.744Z,25.10
2023-03-20T00:09:42.500Z,22.45
2023-03-20T00:12:16.360Z,23.23
2023-03-20T00:14:43.435Z,24.75
2023-03-20T00:17:20.357Z,25.30
2023-03-20T00:19:47.486Z,24.15
2023-03-20T00:22:14.376Z,24.08
2023-03-20T00:24:41.567Z,24.50
2023-03-20T00:27:13.562Z,24.25
2023-03-20T00:29:41.161Z,23.83
2023-03-20T00:32:13.315Z,23.92
2023-03-20T00:34:40.211Z,24.70
2023-03-20T00:37:07.352Z,24.50
2023-03-20T00:39:34.565Z,23.55
2023-03-20T00:42:04.093Z,23.80
2023-03-20T00:44:44.559Z,24.80
2023-03-20T00:47:17.955Z,24.30
2023-03-20T00:49:46.969Z,23.80
2023-03-20T00:52:15.105Z,23.67
2023-03-20T00:54:44.090Z,23.63
2023-03-20T00:57:20.751Z,23.50
2023-03-20T01:00:04.385Z,24.42
2023-03-20T01:02:31.746Z,24.30
2023-03-20T01:04:59.145Z,25.77
2023-03-20T01:07:26.675Z,24.58
2023-03-20T01:09:53.698Z,25.20
2023-03-20T01:12:20.657Z,25.05
2023-03-20T01:14:54.812Z,25.05
2023-03-20T01:17:23.213Z,24.85
2023-03-20T01:19:50.529Z,24.65
2023-03-20T01:22:20.702Z,25.35
2023-03-20T01:24:48.059Z,23.83
2023-03-20T01:27:17.864Z,24.75
2023-03-20T01:29:45.054Z,24.13
2023-03-20T01:32:14.188Z,23.85
2023-03-20T01:34:41.097Z,24.73
2023-03-20T01:37:14.333Z,24.60
2023-03-20T01:39:41.317Z,24.77
2023-03-20T01:42:08.355Z,24.27
2023-03-20T01:44:36.846Z,24.70
2023-03-20T01:47:15.044Z,23.95
2023-03-20T01:50:00.784Z,24.15
2023-03-20T01:52:27.646Z,24.42
2023-03-20T01:54:54.591Z,23.95
2023-03-20T01:57:24.435Z,24.35
2023-03-20T02:00:10.353Z,24.65
2023-03-20T02:02:39.892Z,24.88
2023-03-20T02:05:10.263Z,24.85
2023-03-20T02:07:38.373Z,24.10
2023-03-20T02:10:10.241Z,24.60
2023-03-20T02:12:38.770Z,24.25
2023-03-20T02:15:07.337Z,24.33
2023-03-20T02:17:34.480Z,24.95
2023-03-20T02:20:15.054Z,24.70
2023-03-20T02:23:13.867Z,23.48
2023-03-20T02:26:07.516Z,24.35
2023-03-20T02:28:37.553Z,22.67
2023-03-20T02:31:42.762Z,23.15
2023-03-20T02:34:31.506Z,23.17
2023-03-20T02:37:16.877Z,23.73
2023-03-20T02:39:56.125Z,23.65
2023-03-20T02:42:25.787Z,23.05
2023-03-20T02:45:02.648Z,23.27
2023-03-20T02:48:02.136Z,23.70
2023-03-20T02:50:53.413Z,23.38
2023-03-20T02:55:58.905Z,21.80
2023-03-20T02:58:41.492Z,22.73
2023-03-20T03:01:21.094Z,23.77
2023-03-20T03:03:58.506Z,23.95
2023-03-20T03:06:34.646Z,23.75
2023-03-20T03:09:17.273Z,26.15
2023-03-20T03:11:50.338Z,23.65
2023-03-20T03:14:35.577Z,24.80
2023-03-20T03:17:06.098Z,26.38
2023-03-20T03:19:36.299Z,23.67
2023-03-20T03:22:04.216Z,24.47
2023-03-20T03:24:41.830Z,24.17
2023-03-20T03:27:25.840Z,23.75
2023-03-20T03:30:00.636Z,23.83
2023-03-20T03:32:35.505Z,22.65
2023-03-20T03:35:05.701Z,23.77
2023-03-20T03:37:57.309Z,24.70
2023-03-20T03:40:33.394Z,24.23
2023-03-20T03:43:28.830Z,23.27
2023-03-20T03:46:01.323Z,24.02
2023-03-20T03:48:34.085Z,23.48
2023-03-20T03:51:06.924Z,23.45
2023-03-20T03:53:40.280Z,22.15
2023-03-20T03:56:13.377Z,22.40
2023-03-20T03:58:48.808Z,22.35
2023-03-20T04:01:17.927Z,21.38
2023-03-20T04:03:56.308Z,22.15
2023-03-20T04:06:23.727Z,23.17
2023-03-20T04:08:51.917Z,22.58
2023-03-20T04:11:26.500Z,23.08
2023-03-20T04:13:53.696Z,23.95
2023-03-20T04:16:24.153Z,22.70
2023-03-20T04:18:52.775Z,22.73
2023-03-20T04:21:20.600Z,21.77
2023-03-20T04:23:47.533Z,22.50
2023-03-20T04:26:14.705Z,23.23
2023-03-20T04:28:41.818Z,21.42
2023-03-20T04:31:08.897Z,22.35
2023-03-20T04:33:37.955Z,21.50
2023-03-20T04:36:06.354Z,22.17
2023-03-20T04:38:33.347Z,21.85
2023-03-20T04:41:00.510Z,21.13
2023-03-20T04:43:27.549Z,20.05
2023-03-20T04:45:54.487Z,20.48
2023-03-20T04:48:21.554Z,21.02
2023-03-20T04:50:50.951Z,21.75
2023-03-20T04:53:18.595Z,21.02
2023-03-20T04:55:46.134Z,20.85
2023-03-20T04:58:13.041Z,21.48
2023-03-20T05:00:41.504Z,21.40
2023-03-20T05:03:08.613Z,21.67
2023-03-20T05:05:38.204Z,21.50
2023-03-20T05:08:06.294Z,21.85
2023-03-20T05:10:33.576Z,22.02
2023-03-20T05:13:00.628Z,21.35
2023-03-20T05:15:27.534Z,22.52
2023-03-20T05:17:55.046Z,23.13
2023-03-20T05:20:22.377Z,22.80
2023-03-20T05:22:50.872Z,23.50
2023-03-20T05:25:18.273Z,23.65
2023-03-20T05:27:46.862Z,22.63
2023-03-20T05:30:14.903Z,22.92
2023-03-20T05:32:43.796Z,23.10
2023-03-20T05:35:11.763Z,22.33
2023-03-20T05:37:39.502Z,23.40
2023-03-20T05:40:07.394Z,24.25
2023-03-20T05:42:35.731Z,23.45
2023-03-20T05:45:02.612Z,23.33
2023-03-20T05:47:29.698Z,22.80
2023-03-20T05:49:56.799Z,23.38
2023-03-20T05:52:24.130Z,23.20
2023-03-20T05:54:51.341Z,24.45
2023-03-20T05:57:18.275Z,23.08
2023-03-20T05:59:45.924Z,24.13
2023-03-20T06:02:13.017Z,24.23
2023-03-20T06:04:39.963Z,25.13
2023-03-20T06:07:07.603Z,24.60
2023-03-20T06:09:34.558Z,23.90
2023-03-20T06:12:01.496Z,24.42
2023-03-20T06:14:28.486Z,22.90
2023-03-20T06:16:57.183Z,23.60
2023-03-20T06:19:24.415Z,23.85
2023-03-20T06:21:51.822Z,24.73
2023-03-20T06:24:18.951Z,23.13
2023-03-20T06:26:46.174Z,24.33
2023-03-20T06:29:13.222Z,23.63
2023-03-20T06:31:41.377Z,23.42
2023-03-20T06:34:08.269Z,24.33
2023-03-20T06:36:35.333Z,23.63
2023-03-20T06:39:03.507Z,23.50
2023-03-20T06:41:34.627Z,24.00
2023-03-20T06:44:02.557Z,23.48
2023-03-20T06:46:29.671Z,23.02
2023-03-20T06:48:56.592Z,23.38
2023-03-20T06:51:23.571Z,23.80
2023-03-20T06:53:50.533Z,22.92
2023-03-20T06:56:17.386Z,23.45
2023-03-20T06:58:44.314Z,23.70
2023-03-20T07:01:17.334Z,23.85
2023-03-20T07:03:44.281Z,24.00
2023-03-20T07:06:12.305Z,23.13
2023-03-20T07:08:40.111Z,23.08
2023-03-20T07:11:07.793Z,23.67
2023-03-20T07:13:35.090Z,23.35
2023-03-20T07:16:04.949Z,24.20
2023-03-20T07:18:33.222Z,24.63
2023-03-20T07:21:03.245Z,24.20
2023-03-20T07:23:31.832Z,24.50
2023-03-20T07:26:00.112Z,24.95
2023-03-20T07:28:29.628Z,25.00
2023-03-20T07:30:57.313Z,25.02
2023-03-20T07:33:24.420Z,23.98
2023-03-20T07:35:55.713Z,24.63
2023-03-20T07:38:23.578Z,24.73
2023-03-20T07:40:50.503Z,24.17
2023-03-20T07:43:17.798Z,23.75
2023-03-20T07:45:44.947Z,24.50
2023-03-20T07:48:12.091Z,24.17
2023-03-20T07:50:39.172Z,24.90
2023-03-20T07:53:06.100Z,24.40
2023-03-20T07:55:32.953Z,24.17
2023-03-20T07:57:59.929Z,24.77
2023-03-20T08:00:28.229Z,23.98
2023-03-20T08:02:57.123Z,25.38
2023-03-20T08:05:24.825Z,24.55
2023-03-20T08:07:52.336Z,24.17
2023-03-20T08:10:19.740Z,24.38
2023-03-20T08:12:46.819Z,24.23
2023-03-20T08:15:14.108Z,24.17
2023-03-20T08:17:47.065Z,24.23
2023-03-20T08:20:15.120Z,22.55
2023-03-20T08:22:43.084Z,23.65
2023-03-20T08:25:10.721Z,22.77
2023-03-20T08:27:38.884Z,22.95
2023-03-20T08:30:07.076Z,23.25
2023-03-20T08:32:34.067Z,22.42
2023-03-20T08:35:01.003Z,23.20
2023-03-20T08:37:28.603Z,22.70
2023-03-20T08:39:56.158Z,22.98
2023-03-20T08:42:23.101Z,22.33
2023-03-20T08:44:50.034Z,23.98
2023-03-20T08:47:16.945Z,23.88
2023-03-20T08:49:44.066Z,24.25
2023-03-20T08:52:11.224Z,24.80
2023-03-20T08:54:38.177Z,23.40
2023-03-20T08:57:05.064Z,24.20
2023-03-20T08:59:33.533Z,24.00
2023-03-20T09:02:00.643Z,23.25
2023-03-20T09:04:28.125Z,22.73
2023-03-20T09:06:55.402Z,22.15
2023-03-20T09:09:29.618Z,23.33
2023-03-20T09:11:57.961Z,22.27
2023-03-20T09:14:26.791Z,22.50
2023-03-20T09:16:55.703Z,23.52
2023-03-20T09:19:22.703Z,22.80
2023-03-20T09:21:49.894Z,22.05
2023-03-20T09:24:17.105Z,22.20
2023-03-20T09:26:44.009Z,21.23
2023-03-20T09:29:10.940Z,21.75
2023-03-20T09:31:37.895Z,21.42
2023-03-20T09:34:05.050Z,20.33
2023-03-20T09:36:32.713Z,20.60
2023-03-20T09:38:59.783Z,19.90
2023-03-20T09:41:49.151Z,21.17
2023-03-20T09:44:37.493Z,22.00
2023-03-20T09:47:26.032Z,21.23
2023-03-20T09:50:02.385Z,21.55
2023-03-20T09:52:35.766Z,20.55
2023-03-20T09:55:08.234Z,21.20
2023-03-20T09:57:40.740Z,21.52
2023-03-20T10:00:16.593Z,21.13
2023-03-20T10:03:11.224Z,21.10
2023-03-20T10:05:54.467Z,22.27
2023-03-20T10:08:26.077Z,22.55
2023-03-20T10:11:08.666Z,22.15
2023-03-20T10:13:45.106Z,22.77
2023-03-20T10:16:47.885Z,23.35
2023-03-20T10:19:14.834Z,23.15
2023-03-20T10:21:48.674Z,24.92
2023-03-20T10:24:40.056Z,23.25
2023-03-20T10:30:00.704Z,25.38
2023-03-20T10:32:56.158Z,24.23
2023-03-20T10:35:34.035Z,23.17
2023-03-20T10:38:13.089Z,22.83
2023-03-20T10:40:42.513Z,23.88
2023-03-20T10:43:38.842Z,22.52
2023-03-20T10:46:35.638Z,22.67
2023-03-20T10:49:09.080Z,21.45
2023-03-20T10:51:47.687Z,21.23
2023-03-20T10:54:27.117Z,22.85
2023-03-20T10:56:56.987Z,21.95
2023-03-20T10:59:39.089Z,22.25
2023-03-20T11:02:11.609Z,22.85
2023-03-20T11:04:38.910Z,23.42
2023-03-20T11:07:17.852Z,23.10
2023-03-20T11:09:44.923Z,24.95
2023-03-20T11:12:18.457Z,23.83
2023-03-20T11:14:45.561Z,24.00
2023-03-20T11:17:12.891Z,25.80
2023-03-20T11:19:41.788Z,25.85
2023-03-20T11:22:27.619Z,25.48
2023-03-20T11:25:05.187Z,25.75
2023-03-20T11:27:33.758Z,25.80
2023-03-20T11:30:03.134Z,28.10
2023-03-20T11:32:36.421Z,28.75
2023-03-20T11:35:20.949Z,27.83
2023-03-20T11:37:52.507Z,27.65
2023-03-20T11:40:33.745Z,28.05
2023-03-20T11:45:38.568Z,28.33
2023-03-20T11:48:07.263Z,29.00
2023-03-20T11:50:43.240Z,29.42
2023-03-20T11:53:28.536Z,31.60
2023-03-20T11:56:29.229Z,32.15
2023-03-20T11:59:04.045Z,34.15
2023-03-20T12:01:46.881Z,33.92
2023-03-20T12:04:18.113Z,33.67
2023-03-20T12:09:41.792Z,31.30
2023-03-20T12:12:30.837Z,30.48
2023-03-20T12:15:04.353Z,29.55
2023-03-20T12:17:40.143Z,30.25
2023-03-20T12:20:29.428Z,30.60
2023-03-20T12:23:21.492Z,31.75
2023-03-20T12:26:05.570Z,33.40
2023-03-20T12:28:47.468Z,32.38
2023-03-20T12:31:30.893Z,32.83
2023-03-20T12:34:06.540Z,31.92
2023-03-20T12:36:41.895Z,28.77
2023-03-20T12:39:18.352Z,31.05
2023-03-20T12:42:27.315Z,30.95
2023-03-20T12:45:09.588Z,29.38
2023-03-20T12:47:53.364Z,28.20
2023-03-20T12:50:23.819Z,27.63
2023-03-20T12:53:02.793Z,28.90
2023-03-20T12:55:35.833Z,28.98
2023-03-20T12:58:11.645Z,29.98
2023-03-20T13:01:01.072Z,30.23
2023-03-20T13:03:51.662Z,29.35
2023-03-20T13:06:33.906Z,27.23
2023-03-20T13:09:14.327Z,26.27
2023-03-20T13:12:12.185Z,25.02
2023-03-20T13:15:05.118Z,25.48
2023-03-20T13:17:50.368Z,24.20
2023-03-20T13:20:32.319Z,23.38
2023-03-20T13:23:08.361Z,23.67
2023-03-20T13:25:35.499Z,23.42
2023-03-20T13:28:22.791Z,25.05
2023-03-20T13:31:08.297Z,24.60
2023-03-20T13:34:11.371Z,25.45
2023-03-20T13:36:50.305Z,25.70
2023-03-20T13:39:20.144Z,25.67
2023-03-20T13:41:49.607Z,24.77
2023-03-20T13:44:21.230Z,24.10
2023-03-20T13:47:10.661Z,23.58
2023-03-20T13:49:42.245Z,22.92
2023-03-20T13:52:22.149Z,22.20
2023-03-20T13:55:17.486Z,23.30
2023-03-20T13:58:08.198Z,22.83
2023-03-20T14:00:50.884Z,22.90
2023-03-20T14:03:31.564Z,21.17
2023-03-20T14:05:59.048Z,21.95
2023-03-20T14:08:31.470Z,21.27
2023-03-20T14:11:16.455Z,21.42
2023-03-20T14:13:49.662Z,20.17
2023-03-20T14:16:20.044Z,20.95
2023-03-20T14:19:04.046Z,21.38
2023-03-20T14:21:31.050Z,21.88
2023-03-20T14:24:02.594Z,22.45
2023-03-20T14:26:38.574Z,20.92
2023-03-20T14:29:11.564Z,20.88
2023-03-20T14:31:42.138Z,20.45
2023-03-20T14:34:12.253Z,20.48
2023-03-20T14:36:45.338Z,21.45
2023-03-20T14:39:30.742Z,21.80
2023-03-20T14:42:12.764Z,22.40
2023-03-20T14:45:18.461Z,22.40
2023-03-20T14:48:02.329Z,22.92
2023-03-20T14:50:39.836Z,21.67
2023-03-20T14:53:18.546Z,20.48
2023-03-20T14:55:52.729Z,21.60
2023-03-20T14:58:43.948Z,21.00
2023-03-20T15:01:40.037Z,21.70
2023-03-20T15:04:27.238Z,20.98
2023-03-20T15:06:58.612Z,19.05
2023-03-20T15:09:30.275Z,20.33
2023-03-20T15:12:04.563Z,18.55
2023-03-20T15:14:42.533Z,20.00
2023-03-20T15:17:36.450Z,19.10
2023-03-20T15:20:16.442Z,18.98
2023-03-20T15:23:00.951Z,20.02
2023-03-20T15:25:39.167Z,19.75
2023-03-20T15:28:12.338Z,21.00
2023-03-20T15:30:40.167Z,19.73
2023-03-20T15:33:12.783Z,19.95
2023-03-20T15:35:40.235Z,20.95
2023-03-20T15:38:08.296Z,20.13
2023-03-20T15:40:50.144Z,20.60
2023-03-20T15:43:19.111Z,21.10
2023-03-20T15:45:46.732Z,21.80
2023-03-20T15:48:19.115Z,21.13
2023-03-20T15:50:57.168Z,21.08
2023-03-20T15:53:40.600Z,22.27
2023-03-20T15:56:24.345Z,24.10
2023-03-20T15:58:53.766Z,23.75
2023-03-20T16:01:23.141Z,25.77
2023-03-20T16:03:59.162Z,24.95
2023-03-20T16:06:52.876Z,24.80
2023-03-20T16:09:22.696Z,24.02
2023-03-20T16:11:57.566Z,23.48
2023-03-20T16:14:30.087Z,25.48
2023-03-20T16:16:59.572Z,24.35
2023-03-20T16:19:28.978Z,24.33
2023-03-20T16:22:01.416Z,24.77
2023-03-20T16:24:31.542Z,23.75
2023-03-20T16:26:58.601Z,25.40
2023-03-20T16:29:28.378Z,26.52
2023-03-20T16:32:07.871Z,26.67
2023-03-20T16:34:37.922Z,25.20
2023-03-20T16:37:29.833Z,25.58
2023-03-20T16:40:11.842Z,24.92
2023-03-20T16:42:38.928Z,25.00
2023-03-20T16:45:15.593Z,24.45
2023-03-20T16:47:43.485Z,23.75
2023-03-20T16:50:15.426Z,21.98
2023-03-20T16:52:46.425Z,22.70
2023-03-20T16:55:17.928Z,24.23
2023-03-20T16:57:50.282Z,24.13
2023-03-20T17:00:24.374Z,24.48
2023-03-20T17:03:14.626Z,24.88
2023-03-20T17:06:00.278Z,23.40
2023-03-20T17:08:41.768Z,23.23
2023-03-20T17:11:36.807Z,24.63
2023-03-20T17:14:04.509Z,24.23
2023-03-20T17:16:36.825Z,26.60
2023-03-20T17:19:16.341Z,27.05
2023-03-20T17:21:46.114Z,28.17
2023-03-20T17:24:17.049Z,28.02
2023-03-20T17:26:50.105Z,27.23
2023-03-20T17:29:17.047Z,26.17
2023-03-20T17:31:44.021Z,25.60
2023-03-20T17:34:14.435Z,25.60
2023-03-20T17:36:42.596Z,25.67
2023-03-20T17:39:17.594Z,25.15
2023-03-20T17:41:44.528Z,24.65
2023-03-20T17:44:11.749Z,24.05
2023-03-20T17:46:54.291Z,24.23
2023-03-20T17:49:27.409Z,25.30
2023-03-20T17:51:55.473Z,24.88
2023-03-20T17:54:22.470Z,23.67
2023-03-20T17:56:49.397Z,23.75
2023-03-20T17:59:16.391Z,24.17
2023-03-20T18:01:43.368Z,24.60
2023-03-20T18:04:10.356Z,23.63
2023-03-20T18:06:37.411Z,23.52
2023-03-20T18:09:05.084Z,24.13
2023-03-20T18:11:32.184Z,24.23
2023-03-20T18:14:02.061Z,23.88
2023-03-20T18:16:29.124Z,25.13
2023-03-20T18:18:57.077Z,23.58
2023-03-20T18:21:23.990Z,24.48
2023-03-20T18:23:50.983Z,23.77
2023-03-20T18:26:26.590Z,23.08
2023-03-20T18:28:55.090Z,24.00
2023-03-20T18:31:22.627Z,23.98
2023-03-20T18:33:51.861Z,24.27
2023-03-20T18:36:21.750Z,24.75
2023-03-20T18:38:49.528Z,24.30
2023-03-20T18:41:16.495Z,23.73
2023-03-20T18:43:44.615Z,23.17
2023-03-20T18:46:16.837Z,22.00
2023-03-20T18:48:44.507Z,21.80
2023-03-20T18:51:11.815Z,23.42
2023-03-20T18:53:40.764Z,22.65
2023-03-20T18:56:13.219Z,23.33
2023-03-20T18:58:40.092Z,21.67
2023-03-20T19:01:07.164Z,23.23
2023-03-20T19:03:39.391Z,22.88
2023-03-20T19:06:16.328Z,23.10
2023-03-20T19:08:44.217Z,23.77
2023-03-20T19:11:15.048Z,23.45
2023-03-20T19:13:48.993Z,23.35
2023-03-20T19:16:28.014Z,21.52
2023-03-20T19:18:56.667Z,22.52
2023-03-20T19:21:26.648Z,21.85
2023-03-20T19:23:59.203Z,20.08
2023-03-20T19:26:27.933Z,19.92
2023-03-20T19:28:56.491Z,20.17
2023-03-20T19:31:24.593Z,19.25
2023-03-20T19:33:52.278Z,19.50
2023-03-20T19:36:29.209Z,19.42
2023-03-20T19:38:57.707Z,18.00
2023-03-20T19:41:24.961Z,18.55
2023-03-20T19:43:54.010Z,17.60
2023-03-20T19:46:41.087Z,23.75
2023-03-20T19:49:30.631Z,14.90
2023-03-20T19:51:57.987Z,14.85
2023-03-20T19:54:24.909Z,14.38
2023-03-20T19:56:51.848Z,13.98
2023-03-20T19:59:18.757Z,13.30
2023-03-20T20:01:46.039Z,12.25
2023-03-20T20:04:13.883Z,12.05
2023-03-20T20:06:41.832Z,10.85
2023-03-20T20:09:09.058Z,11.82
2023-03-20T20:11:36.387Z,10.73
2023-03-20T20:14:08.532Z,10.10
2023-03-20T20:16:37.537Z,10.88
2023-03-20T20:19:04.703Z,11.38
2023-03-20T20:22:17.117Z,10.65
2023-03-20T20:24:19.470Z,10.40
2023-03-20T20:27:03.499Z,11.25
2023-03-20T20:29:38.251Z,9.93
2023-03-20T20:32:05.528Z,9.35
2023-03-20T20:40:13.293Z,8.55
2023-03-20T20:42:40.596Z,7.97
2023-03-20T20:45:09.769Z,7.47
2023-03-20T20:47:36.848Z,7.68
2023-03-20T20:50:04.264Z,6.80
2023-03-20T20:52:35.603Z,5.35
2023-03-20T20:55:21.711Z,4.78
2023-03-20T20:57:50.982Z,4.93
2023-03-20T21:00:19.327Z,4.28
2023-03-20T21:02:46.721Z,4.55
2023-03-20T21:05:16.794Z,4.40
2023-03-20T21:07:45.975Z,4.28
2023-03-20T21:10:16.702Z,4.38
2023-03-20T21:12:58.025Z,4.22
2023-03-20T21:15:25.777Z,4.53
2023-03-20T21:18:00.754Z,4.22
2023-03-20T21:20:29.796Z,4.20
2023-03-20T21:22:56.715Z,4.43
2023-03-20T21:25:38.712Z,4.93
2023-03-20T21:28:12.767Z,4.43
2023-03-20T21:30:54.542Z,4.63
2023-03-20T21:33:28.847Z,4.60
2023-03-20T21:35:55.783Z,4.70
2023-03-20T21:39:06.077Z,4.80
2023-03-20T21:41:10.779Z,4.85
2023-03-20T21:43:37.699Z,4.47
2023-03-20T21:52:41.735Z,4.47
2023-03-20T21:55:08.419Z,4.80
2023-03-20T22:02:49.156Z,5.50
2023-03-20T22:06:14.055Z,5.32
2023-03-20T22:09:00.422Z,4.97
2023-03-20T22:25:46.362Z,6.28
2023-03-20T22:28:15.656Z,5.55
2023-03-20T22:47:12.015Z,5.85
2023-03-20T22:49:39.059Z,6.25
2023-03-20T22:52:22.604Z,5.40
2023-03-20T22:54:51.851Z,5.68
2023-03-20T22:57:18.883Z,5.55
2023-03-20T22:59:46.469Z,5.25
2023-03-20T23:02:13.415Z,4.88
2023-03-20T23:04:40.716Z,4.90
2023-03-20T23:07:07.892Z,4.50
2023-03-20T23:09:34.803Z,4.35
2023-03-20T23:12:01.872Z,4.55
2023-03-20T23:14:36.222Z,4.30
2023-03-20T23:17:10.031Z,3.70
2023-03-20T23:19:46.872Z,3.95
2023-03-20T23:22:17.301Z,3.97
2023-03-20T23:24:44.295Z,4.15
2023-03-20T23:27:11.186Z,3.70
2023-03-20T23:29:38.112Z,3.83
2023-03-20T23:32:05.343Z,3.08
2023-03-20T23:34:32.500Z,3.35
2023-03-20T23:36:59.900Z,3.47
2023-03-20T23:39:26.792Z,3.60
2023-03-20T23:42:08.414Z,3.58
2023-03-20T23:44:44.090Z,3.72
2023-03-20T23:47:20.328Z,3.67
2023-03-20T23:49:48.296Z,3.90
2023-03-20T23:52:15.998Z,4.20
2023-03-20T23:54:42.925Z,4.03
2023-03-20T23:57:10.433Z,4.07
2023-03-20T23:59:40.317Z,3.95
